createdAt,value
2023-09-10T00:01:01.775Z,98708.00
2023-09-10T00:03:28.716Z,98711.47
2023-09-10T00:05:55.930Z,98707.75
2023-09-10T00:08:22.702Z,98710.88
2023-09-10T00:10:49.729Z,98711.56
2023-09-10T00:13:16.551Z,98714.09
2023-09-10T00:15:43.249Z,98714.91
2023-09-10T00:18:10.097Z,98710.69
2023-09-10T00:20:39.730Z,98716.13
2023-09-10T00:23:06.647Z,98719.06
2023-09-10T00:25:33.463Z,98722.59
2023-09-10T00:28:00.267Z,98723.41
2023-09-10T00:30:30.293Z,98709.38
2023-09-10T00:32:57.178Z,98717.88
2023-09-10T00:35:23.914Z,98715.59
2023-09-10T00:37:50.803Z,98721.28
2023-09-10T00:40:17.564Z,98726.53
2023-09-10T00:42:44.237Z,98726.78
2023-09-10T00:45:15.633Z,98727.41
2023-09-10T00:47:46.071Z,98726.63
2023-09-10T00:50:14.928Z,98728.06
2023-09-10T00:52:51.266Z,98730.25
2023-09-10T00:55:19.845Z,98732.97
2023-09-10T00:57:46.736Z,98725.84
2023-09-10T01:00:14.536Z,98728.75
2023-09-10T01:02:44.772Z,98727.69
2023-09-10T01:05:13.015Z,98736.06
2023-09-10T01:07:39.926Z,98726.44
2023-09-10T01:10:07.895Z,98728.16
2023-09-10T01:12:46.848Z,98727.72
2023-09-10T01:15:27.790Z,98722.75
2023-09-10T01:18:14.980Z,98728.63
2023-09-10T01:21:09.707Z,98737.22
2023-09-10T01:23:49.291Z,98725.28
2023-09-10T01:26:15.968Z,98736.09
2023-09-10T01:28:42.854Z,98732.56
2023-09-10T01:31:09.692Z,98741.09
2023-09-10T01:33:43.111Z,98734.34
2023-09-10T01:36:16.248Z,98737.50
2023-09-10T01:38:55.314Z,98734.47
2023-09-10T01:41:22.683Z,98739.00
2023-09-10T01:43:51.677Z,98734.16
2023-09-10T01:46:20.378Z,98733.53
2023-09-10T01:48:48.094Z,98738.13
2023-09-10T01:51:14.683Z,98730.03
2023-09-10T01:53:41.403Z,98743.34
2023-09-10T01:56:08.307Z,98725.00
2023-09-10T01:58:35.373Z,98736.72
2023-09-10T02:01:02.149Z,98735.69
2023-09-10T02:03:29.167Z,98727.53
2023-09-10T02:05:59.023Z,98728.13
2023-09-10T02:08:26.118Z,98731.38
2023-09-10T02:10:52.895Z,98725.16
2023-09-10T02:13:19.661Z,98729.28
2023-09-10T02:15:46.584Z,98727.00
2023-09-10T02:18:13.391Z,98726.63
2023-09-10T02:20:40.162Z,98727.59
2023-09-10T02:23:07.076Z,98729.09
2023-09-10T02:25:34.358Z,98720.38
2023-09-10T02:28:02.540Z,98728.88
2023-09-10T02:30:29.296Z,98725.75
2023-09-10T02:32:56.825Z,98730.09
2023-09-10T02:35:24.416Z,98731.06
2023-09-10T02:37:51.234Z,98730.41
2023-09-10T02:40:18.085Z,98729.56
2023-09-10T02:42:44.840Z,98730.63
2023-09-10T02:45:12.942Z,98725.91
2023-09-10T02:47:40.049Z,98731.53
2023-09-10T02:50:07.165Z,98729.03
2023-09-10T02:52:33.888Z,98723.75
2023-09-10T02:55:00.934Z,98734.84
2023-09-10T02:57:27.721Z,98730.53
2023-09-10T02:59:54.415Z,98734.22
2023-09-10T03:02:21.231Z,98724.53
2023-09-10T03:04:48.155Z,98722.59
2023-09-10T03:07:15.075Z,98732.72
2023-09-10T03:09:41.794Z,98729.94
2023-09-10T03:12:21.059Z,98730.31
2023-09-10T03:14:47.804Z,98722.59
2023-09-10T03:17:14.792Z,98721.81
2023-09-10T03:19:42.029Z,98726.59
2023-09-10T03:22:08.778Z,98727.47
2023-09-10T03:24:36.194Z,98727.16
2023-09-10T03:27:03.194Z,98738.25
2023-09-10T03:29:31.556Z,98739.31
2023-09-10T03:31:58.317Z,98736.38
2023-09-10T03:34:25.089Z,98737.84
2023-09-10T03:36:51.784Z,98739.41
2023-09-10T03:39:18.565Z,98739.44
2023-09-10T03:41:46.478Z,98738.31
2023-09-10T03:44:13.326Z,98745.97
2023-09-10T03:46:40.209Z,98752.03
2023-09-10T03:49:07.013Z,98751.03
2023-09-10T03:51:33.781Z,98758.94
2023-09-10T03:54:00.508Z,98760.84
2023-09-10T03:56:27.297Z,98761.31
2023-09-10T03:58:54.057Z,98756.56
2023-09-10T04:01:20.843Z,98763.75
2023-09-10T04:03:47.654Z,98763.19
2023-09-10T04:06:14.422Z,98761.41
2023-09-10T04:08:41.231Z,98763.94
2023-09-10T04:11:10.236Z,98756.97
2023-09-10T04:13:38.386Z,98748.03
2023-09-10T04:16:05.084Z,98755.16
2023-09-10T04:18:31.866Z,98762.75
2023-09-10T04:20:58.639Z,98758.59
2023-09-10T04:23:25.437Z,98755.88
2023-09-10T04:25:52.250Z,98761.91
2023-09-10T04:28:19.064Z,98765.13
2023-09-10T04:30:45.816Z,98772.47
2023-09-10T04:33:13.221Z,98770.47
2023-09-10T04:35:48.672Z,98767.59
2023-09-10T04:38:15.414Z,98772.59
2023-09-10T04:40:43.262Z,98768.88
2023-09-10T04:43:10.081Z,98769.03
2023-09-10T04:45:37.391Z,98769.78
2023-09-10T04:48:05.464Z,98774.84
2023-09-10T04:50:32.635Z,98771.69
2023-09-10T04:53:02.013Z,98769.78
2023-09-10T04:55:28.720Z,98767.78
2023-09-10T04:57:55.430Z,98773.84
2023-09-10T05:00:22.399Z,98777.16
2023-09-10T05:02:49.271Z,98776.09
2023-09-10T05:05:16.315Z,98772.06
2023-09-10T05:07:43.116Z,98770.41
2023-09-10T05:10:11.770Z,98771.00
2023-09-10T05:12:38.445Z,98770.66
2023-09-10T05:15:05.713Z,98767.00
2023-09-10T05:17:32.498Z,98770.69
2023-09-10T05:19:59.325Z,98770.22
2023-09-10T05:22:26.072Z,98784.44
2023-09-10T05:24:52.890Z,98773.44
2023-09-10T05:27:19.577Z,98772.91
2023-09-10T05:29:46.288Z,98769.91
2023-09-10T05:32:13.119Z,98773.91
2023-09-10T05:34:39.961Z,98778.41
2023-09-10T05:37:06.709Z,98781.41
2023-09-10T05:39:34.536Z,98783.97
2023-09-10T05:42:01.313Z,98776.09
2023-09-10T05:44:28.017Z,98780.38
2023-09-10T05:46:54.811Z,98773.84
2023-09-10T05:49:21.559Z,98789.56
2023-09-10T05:51:48.280Z,98782.91
2023-09-10T05:54:17.537Z,98785.19
2023-09-10T05:56:44.626Z,98788.91
2023-09-10T05:59:11.392Z,98788.19
2023-09-10T06:01:38.191Z,98792.56
2023-09-10T06:04:05.265Z,98790.22
2023-09-10T06:06:32.103Z,98796.06
2023-09-10T06:08:58.927Z,98811.44
2023-09-10T06:11:25.803Z,98808.47
2023-09-10T06:13:52.554Z,98813.47
2023-09-10T06:16:19.369Z,98814.25
2023-09-10T06:18:48.971Z,98820.06
2023-09-10T06:21:15.708Z,98825.06
2023-09-10T06:23:42.457Z,98819.00
2023-09-10T06:26:09.245Z,98822.94
2023-09-10T06:28:36.267Z,98823.75
2023-09-10T06:31:03.009Z,98823.81
2023-09-10T06:33:29.774Z,98826.56
2023-09-10T06:35:56.867Z,98824.13
2023-09-10T06:38:23.784Z,98827.16
2023-09-10T06:40:52.442Z,98831.00
2023-09-10T06:43:19.289Z,98834.56
2023-09-10T06:45:46.117Z,98830.44
2023-09-10T06:48:12.919Z,98821.66
2023-09-10T06:50:39.679Z,98829.63
2023-09-10T06:53:06.397Z,98828.53
2023-09-10T06:55:33.092Z,98830.97
2023-09-10T06:57:59.796Z,98829.00
2023-09-10T07:00:26.593Z,98834.34
2023-09-10T07:02:53.416Z,98847.44
2023-09-10T07:05:20.401Z,98844.69
2023-09-10T07:07:47.318Z,98841.97
2023-09-10T07:10:14.088Z,98833.22
2023-09-10T07:12:40.742Z,98832.75
2023-09-10T07:15:07.837Z,98836.72
2023-09-10T07:17:34.690Z,98834.00
2023-09-10T07:20:01.424Z,98841.69
2023-09-10T07:22:28.167Z,98839.19
2023-09-10T07:24:54.840Z,98839.28
2023-09-10T07:27:21.573Z,98845.06
2023-09-10T07:29:49.629Z,98838.69
2023-09-10T07:32:16.336Z,98833.22
2023-09-10T07:34:43.061Z,98842.56
2023-09-10T07:37:11.214Z,98835.66
2023-09-10T07:39:39.110Z,98839.50
2023-09-10T07:42:05.879Z,98847.78
2023-09-10T07:44:32.713Z,98833.97
2023-09-10T07:46:59.543Z,98843.63
2023-09-10T07:49:26.279Z,98842.00
2023-09-10T07:51:52.983Z,98838.06
2023-09-10T07:54:19.788Z,98839.34
2023-09-10T07:56:47.112Z,98843.53
2023-09-10T07:59:13.927Z,98854.09
2023-09-10T08:01:40.632Z,98845.63
2023-09-10T08:04:07.684Z,98840.34
2023-09-10T08:06:34.433Z,98838.66
2023-09-10T08:09:01.140Z,98831.91
2023-09-10T08:11:28.139Z,98842.50
2023-09-10T08:13:54.885Z,98842.09
2023-09-10T08:16:21.798Z,98865.31
2023-09-10T08:18:48.641Z,98858.16
2023-09-10T08:21:15.394Z,98863.16
2023-09-10T08:23:43.892Z,98850.91
2023-09-10T08:26:10.799Z,98853.22
2023-09-10T08:28:37.822Z,98863.69
2023-09-10T08:31:05.534Z,98856.91
2023-09-10T08:33:35.643Z,98861.44
2023-09-10T08:36:02.430Z,98856.59
2023-09-10T08:38:29.224Z,98855.88
2023-09-10T08:41:05.871Z,98852.25
2023-09-10T08:43:57.095Z,98859.53
2023-09-10T08:46:31.523Z,98865.00
2023-09-10T08:49:00.092Z,98854.06
2023-09-10T08:51:28.638Z,98856.63
2023-09-10T08:53:58.361Z,98861.00
2023-09-10T08:56:26.919Z,98858.84
2023-09-10T08:58:55.174Z,98853.91
2023-09-10T09:01:24.992Z,98853.66
2023-09-10T09:03:57.847Z,98864.16
2023-09-10T09:06:29.828Z,98860.22
2023-09-10T09:08:58.352Z,98862.88
2023-09-10T09:11:26.544Z,98857.50
2023-09-10T09:13:55.330Z,98857.81
2023-09-10T09:16:22.135Z,98854.97
2023-09-10T09:18:50.067Z,98875.75
2023-09-10T09:21:22.100Z,98860.38
2023-09-10T09:24:02.831Z,98866.59
2023-09-10T09:26:30.504Z,98865.66
2023-09-10T09:28:57.758Z,98869.72
2023-09-10T09:31:25.758Z,98877.41
2023-09-10T09:33:53.355Z,98863.72
2023-09-10T09:36:20.122Z,98866.97
2023-09-10T09:38:48.999Z,98869.66
2023-09-10T09:41:16.684Z,98859.09
2023-09-10T09:43:44.210Z,98870.59
2023-09-10T09:46:11.235Z,98871.81
2023-09-10T09:48:39.285Z,98871.53
2023-09-10T09:51:07.157Z,98865.81
2023-09-10T09:53:35.184Z,98859.44
2023-09-10T09:56:06.739Z,98862.53
2023-09-10T09:58:34.632Z,98864.13
2023-09-10T10:01:02.266Z,98857.66
2023-09-10T10:03:34.891Z,98868.34
2023-09-10T10:06:03.160Z,98851.22
2023-09-10T10:08:30.959Z,98849.88
2023-09-10T10:10:58.306Z,98854.22
2023-09-10T10:13:25.685Z,98845.44
2023-09-10T10:15:55.181Z,98848.91
2023-09-10T10:18:23.631Z,98845.06
2023-09-10T10:20:51.343Z,98861.53
2023-09-10T10:23:26.194Z,98842.41
2023-09-10T10:25:54.662Z,98856.84
2023-09-10T10:28:22.134Z,98857.16
2023-09-10T10:31:05.997Z,98839.84
2023-09-10T10:33:35.114Z,98854.59
2023-09-10T10:36:11.551Z,98853.66
2023-09-10T10:38:44.505Z,98854.00
2023-09-10T10:41:17.913Z,98846.44
2023-09-10T10:44:11.676Z,98849.97
2023-09-10T10:46:41.406Z,98848.91
2023-09-10T10:49:08.964Z,98844.31
2023-09-10T10:51:55.321Z,98843.97
2023-09-10T10:54:24.176Z,98846.63
2023-09-10T10:56:51.340Z,98843.78
2023-09-10T10:59:19.197Z,98848.97
2023-09-10T11:02:11.580Z,98837.22
2023-09-10T11:04:38.489Z,98836.03
2023-09-10T11:07:21.523Z,98840.44
2023-09-10T11:09:49.157Z,98828.88
2023-09-10T11:12:17.001Z,98825.50
2023-09-10T11:15:01.827Z,98831.25
2023-09-10T11:17:30.533Z,98832.31
2023-09-10T11:19:57.495Z,98835.56
2023-09-10T11:22:24.314Z,98832.84
2023-09-10T11:25:08.081Z,98832.00
2023-09-10T11:27:35.686Z,98825.75
2023-09-10T11:30:06.745Z,98819.59
2023-09-10T11:32:33.753Z,98824.69
2023-09-10T11:35:18.961Z,98821.69
2023-09-10T11:37:53.086Z,98810.34
2023-09-10T11:40:21.179Z,98818.53
2023-09-10T11:42:49.552Z,98816.78
2023-09-10T11:45:17.531Z,98800.84
2023-09-10T11:47:51.675Z,98812.69
2023-09-10T11:50:24.957Z,98814.94
2023-09-10T11:55:19.877Z,98810.72
2023-09-10T11:57:47.840Z,98804.75
2023-09-10T12:00:17.476Z,98816.09
2023-09-10T12:02:44.994Z,98814.00
2023-09-10T12:05:12.235Z,98810.94
2023-09-10T12:07:44.468Z,98802.69
2023-09-10T12:12:39.022Z,98810.88
2023-09-10T12:15:06.122Z,98811.72
2023-09-10T12:17:34.132Z,98804.44
2023-09-10T12:20:01.245Z,98799.91
2023-09-10T12:22:28.029Z,98808.41
2023-09-10T12:24:54.869Z,98803.50
2023-09-10T12:27:22.980Z,98805.72
2023-09-10T12:29:52.038Z,98809.09
2023-09-10T12:32:18.808Z,98808.72
2023-09-10T12:34:45.855Z,98811.84
2023-09-10T12:37:19.348Z,98802.53
2023-09-10T12:39:46.547Z,98798.06
2023-09-10T12:42:15.618Z,98797.78
2023-09-10T12:44:42.471Z,98790.41
2023-09-10T12:47:13.893Z,98797.00
2023-09-10T12:49:41.809Z,98792.63
2023-09-10T12:52:08.764Z,98801.75
2023-09-10T12:54:36.063Z,98795.91
2023-09-10T12:57:06.170Z,98795.69
2023-09-10T12:59:33.114Z,98807.28
2023-09-10T13:02:03.410Z,98793.78
2023-09-10T13:04:30.175Z,98793.78
2023-09-10T13:06:56.989Z,98794.38
2023-09-10T13:09:23.708Z,98803.97
2023-09-10T13:11:50.396Z,98794.94
2023-09-10T13:14:18.695Z,98804.81
2023-09-10T13:16:45.480Z,98794.66
2023-09-10T13:19:12.424Z,98798.00
2023-09-10T13:21:39.325Z,98793.53
2023-09-10T13:24:06.455Z,98795.19
2023-09-10T13:26:33.208Z,98796.63
2023-09-10T13:28:59.946Z,98799.13
2023-09-10T13:31:27.318Z,98801.28
2023-09-10T13:33:54.082Z,98798.00
2023-09-10T13:36:20.863Z,98794.13
2023-09-10T13:38:48.833Z,98788.63
2023-09-10T13:41:15.931Z,98796.63
2023-09-10T13:43:43.169Z,98783.97
2023-09-10T13:46:10.236Z,98780.09
2023-09-10T13:48:37.112Z,98778.72
2023-09-10T13:51:04.010Z,98785.34
2023-09-10T13:53:30.888Z,98787.28
2023-09-10T13:55:57.753Z,98787.00
2023-09-10T13:58:24.497Z,98776.00
2023-09-10T14:00:51.191Z,98781.75
2023-09-10T14:03:17.987Z,98785.34
2023-09-10T14:05:44.897Z,98787.53
2023-09-10T14:08:11.822Z,98781.50
2023-09-10T14:10:38.706Z,98784.22
2023-09-10T14:13:05.452Z,98784.75
2023-09-10T14:15:32.267Z,98790.47
2023-09-10T14:17:59.043Z,98800.09
2023-09-10T14:20:25.951Z,98797.13
2023-09-10T14:22:53.578Z,98791.88
2023-09-10T14:25:20.535Z,98796.22
2023-09-10T14:27:47.881Z,98786.09
2023-09-10T14:30:16.046Z,98786.84
2023-09-10T14:32:43.119Z,98777.22
2023-09-10T14:35:10.210Z,98778.34
2023-09-10T14:37:36.990Z,98772.84
2023-09-10T14:40:07.339Z,98774.72
2023-09-10T14:42:35.346Z,98770.56
2023-09-10T14:45:02.087Z,98778.25
2023-09-10T14:47:28.895Z,98772.19
2023-09-10T14:49:55.634Z,98775.78
2023-09-10T14:52:22.566Z,98780.94
2023-09-10T14:54:49.468Z,98771.56
2023-09-10T14:57:16.198Z,98774.56
2023-09-10T14:59:42.910Z,98779.25
2023-09-10T15:02:10.192Z,98779.50
2023-09-10T15:04:36.897Z,98785.75
2023-09-10T15:07:03.757Z,98782.72
2023-09-10T15:09:30.617Z,98778.28
2023-09-10T15:11:57.328Z,98781.78
2023-09-10T15:14:24.196Z,98778.19
2023-09-10T15:16:50.978Z,98776.28
2023-09-10T15:19:18.163Z,98772.72
2023-09-10T15:21:44.992Z,98775.75
2023-09-10T15:24:11.782Z,98777.38
2023-09-10T15:26:38.550Z,98781.63
2023-09-10T15:29:05.426Z,98784.63
2023-09-10T15:31:36.404Z,98779.34
2023-09-10T15:34:04.094Z,98783.78
2023-09-10T15:36:31.033Z,98777.41
2023-09-10T15:38:57.753Z,98783.66
2023-09-10T15:41:25.149Z,98771.78
2023-09-10T15:43:52.318Z,98783.25
2023-09-10T15:46:19.121Z,98780.84
2023-09-10T15:48:45.805Z,98786.69
2023-09-10T15:51:12.539Z,98782.06
2023-09-10T15:53:39.785Z,98775.44
2023-09-10T15:56:06.766Z,98779.09
2023-09-10T15:58:35.635Z,98771.13
2023-09-10T16:01:02.505Z,98772.69
2023-09-10T16:03:29.333Z,98767.72
2023-09-10T16:05:57.772Z,98774.75
2023-09-10T16:08:28.613Z,98779.31
2023-09-10T16:10:58.256Z,98778.13
2023-09-10T16:13:26.716Z,98777.56
2023-09-10T16:15:53.567Z,98775.00
2023-09-10T16:18:20.358Z,98778.94
2023-09-10T16:20:47.286Z,98773.91
2023-09-10T16:23:14.099Z,98782.88
2023-09-10T16:25:40.821Z,98780.84
2023-09-10T16:28:07.605Z,98778.00
2023-09-10T16:30:35.512Z,98779.25
2023-09-10T16:33:02.316Z,98767.94
2023-09-10T16:35:29.122Z,98778.41
2023-09-10T16:37:55.924Z,98779.75
2023-09-10T16:40:22.783Z,98779.34
2023-09-10T16:42:49.611Z,98779.84
2023-09-10T16:45:16.637Z,98779.75
2023-09-10T16:47:43.364Z,98772.81
2023-09-10T16:50:11.817Z,98774.06
2023-09-10T16:52:38.620Z,98776.88
2023-09-10T16:55:05.522Z,98785.16
2023-09-10T16:57:32.344Z,98784.56
2023-09-10T16:59:59.064Z,98776.66
2023-09-10T17:02:25.902Z,98783.22
2023-09-10T17:04:52.758Z,98789.56
2023-09-10T17:07:19.552Z,98789.22
2023-09-10T17:09:46.393Z,98792.94
2023-09-10T17:12:13.255Z,98791.34
2023-09-10T17:14:40.065Z,98791.34
2023-09-10T17:17:06.867Z,98795.03
2023-09-10T17:19:34.519Z,98806.19
2023-09-10T17:22:01.212Z,98797.81
2023-09-10T17:24:29.850Z,98796.97
2023-09-10T17:26:56.562Z,98804.22
2023-09-10T17:29:23.388Z,98802.94
2023-09-10T17:31:51.336Z,98803.09
2023-09-10T17:34:18.094Z,98800.03
2023-09-10T17:36:44.867Z,98803.97
2023-09-10T17:39:11.630Z,98809.03
2023-09-10T17:41:38.447Z,98815.09
2023-09-10T17:44:05.292Z,98807.88
2023-09-10T17:46:33.488Z,98821.16
2023-09-10T17:49:00.315Z,98819.38
2023-09-10T17:51:27.981Z,98822.94
2023-09-10T17:53:54.615Z,98819.38
2023-09-10T17:56:21.501Z,98826.38
2023-09-10T17:58:48.275Z,98828.25
2023-09-10T18:01:15.128Z,98826.38
2023-09-10T18:03:44.172Z,98830.19
2023-09-10T18:06:11.206Z,98833.22
2023-09-10T18:08:37.919Z,98832.03
2023-09-10T18:11:04.849Z,98837.72
2023-09-10T18:13:31.787Z,98833.69
2023-09-10T18:15:58.503Z,98842.63
2023-09-10T18:18:25.823Z,98837.38
2023-09-10T18:20:52.661Z,98836.91
2023-09-10T18:23:19.449Z,98832.53
2023-09-10T18:25:46.409Z,98829.81
2023-09-10T18:28:13.115Z,98830.97
2023-09-10T18:30:40.933Z,98833.09
2023-09-10T18:33:09.851Z,98831.34
2023-09-10T18:35:37.598Z,98834.41
2023-09-10T18:38:04.650Z,98831.19
2023-09-10T18:40:31.826Z,98832.50
2023-09-10T18:42:58.920Z,98835.00
2023-09-10T18:45:27.990Z,98835.00
2023-09-10T18:47:54.788Z,98833.69
2023-09-10T18:50:21.702Z,98830.25
2023-09-10T18:52:50.556Z,98840.91
2023-09-10T18:55:17.525Z,98833.81
2023-09-10T18:57:44.286Z,98838.66
2023-09-10T19:00:11.552Z,98837.84
2023-09-10T19:02:39.925Z,98847.28
2023-09-10T19:05:07.247Z,98842.94
2023-09-10T19:07:34.050Z,98848.03
2023-09-10T19:10:01.331Z,98847.63
2023-09-10T19:12:28.164Z,98840.56
2023-09-10T19:14:54.948Z,98841.00
2023-09-10T19:17:21.697Z,98843.97
2023-09-10T19:19:48.810Z,98842.53
2023-09-10T19:22:15.520Z,98845.41
2023-09-10T19:24:42.331Z,98845.41
2023-09-10T19:27:09.105Z,98850.09
2023-09-10T19:29:35.902Z,98850.09
2023-09-10T19:32:03.791Z,98844.91
2023-09-10T19:34:30.542Z,98844.88
2023-09-10T19:36:58.498Z,98853.34
2023-09-10T19:39:29.085Z,98849.09
2023-09-10T19:41:58.406Z,98852.50
2023-09-10T19:44:25.260Z,98851.28
2023-09-10T19:46:52.118Z,98856.31
2023-09-10T19:49:19.018Z,98855.28
2023-09-10T19:51:49.838Z,98856.72
2023-09-10T19:54:16.534Z,98852.69
2023-09-10T19:56:43.331Z,98842.56
2023-09-10T19:59:14.162Z,98848.38
2023-09-10T20:01:43.871Z,98849.19
2023-09-10T20:04:11.865Z,98843.91
2023-09-10T20:06:40.325Z,98843.06
2023-09-10T20:09:10.882Z,98840.34
2023-09-10T20:11:38.892Z,98841.44
2023-09-10T20:14:07.484Z,98828.25
2023-09-10T20:16:36.001Z,98832.66
2023-09-10T20:19:02.907Z,98828.25
2023-09-10T20:21:29.860Z,98827.66
2023-09-10T20:23:56.690Z,98840.69
2023-09-10T20:26:26.611Z,98835.47
2023-09-10T20:28:56.530Z,98838.06
2023-09-10T20:31:23.394Z,98835.53
2023-09-10T20:33:50.393Z,98822.38
2023-09-10T20:36:17.269Z,98829.50
2023-09-10T20:38:44.181Z,98829.94
2023-09-10T20:41:14.459Z,98823.06
2023-09-10T20:43:41.723Z,98828.75
2023-09-10T20:46:09.268Z,98823.75
2023-09-10T20:48:36.090Z,98819.16
2023-09-10T20:51:05.293Z,98822.13
2023-09-10T20:53:32.812Z,98820.91
2023-09-10T20:55:59.719Z,98829.53
2023-09-10T20:58:26.510Z,98815.47
2023-09-10T21:00:53.902Z,98813.59
2023-09-10T21:03:28.632Z,98814.19
2023-09-10T21:06:07.460Z,98808.75
2023-09-10T21:08:34.375Z,98810.03
2023-09-10T21:11:05.265Z,98810.72
2023-09-10T21:13:32.031Z,98799.34
2023-09-10T21:15:58.770Z,98800.25
2023-09-10T21:18:25.544Z,98797.84
2023-09-10T21:20:53.138Z,98792.88
2023-09-10T21:23:19.882Z,98796.28
2023-09-10T21:25:46.697Z,98796.81
2023-09-10T21:28:13.467Z,98791.81
2023-09-10T21:30:40.251Z,98790.63
2023-09-10T21:33:07.135Z,98787.03
2023-09-10T21:35:34.142Z,98786.25
2023-09-10T21:38:01.045Z,98783.84
2023-09-10T21:40:27.736Z,98786.13
2023-09-10T21:42:54.506Z,98794.66
2023-09-10T21:45:21.245Z,98788.69
2023-09-10T21:47:47.999Z,98790.56
2023-09-10T21:50:14.950Z,98795.91
2023-09-10T21:52:41.753Z,98794.66
2023-09-10T21:55:09.080Z,98796.00
2023-09-10T21:57:35.883Z,98800.91
2023-09-10T22:00:04.268Z,98791.56
2023-09-10T22:02:31.274Z,98793.06
2023-09-10T22:04:59.254Z,98797.75
2023-09-10T22:07:26.333Z,98796.41
2023-09-10T22:09:55.118Z,98798.56
2023-09-10T22:12:22.063Z,98801.09
2023-09-10T22:14:48.896Z,98794.06
2023-09-10T22:17:15.758Z,98796.63
2023-09-10T22:19:43.189Z,98795.88
2023-09-10T22:22:16.220Z,98795.66
2023-09-10T22:24:45.389Z,98789.84
2023-09-10T22:27:12.158Z,98780.88
2023-09-10T22:29:39.537Z,98786.97
2023-09-10T22:32:06.435Z,98779.53
2023-09-10T22:34:33.947Z,98779.75
2023-09-10T22:37:00.678Z,98780.88
2023-09-10T22:39:27.403Z,98783.38
2023-09-10T22:41:54.174Z,98788.41
2023-09-10T22:44:20.964Z,98787.19
2023-09-10T22:46:47.778Z,98779.31
2023-09-10T22:49:14.507Z,98774.97
2023-09-10T22:51:44.179Z,98777.69
2023-09-10T22:54:11.358Z,98779.38
2023-09-10T22:56:38.145Z,98780.81
2023-09-10T22:59:04.893Z,98778.50
2023-09-10T23:01:31.690Z,98771.22
2023-09-10T23:03:58.571Z,98779.50
2023-09-10T23:06:25.278Z,98774.69
2023-09-10T23:08:52.017Z,98769.94
2023-09-10T23:11:18.810Z,98770.13
2023-09-10T23:13:45.613Z,98767.19
2023-09-10T23:16:12.344Z,98758.03
2023-09-10T23:18:39.354Z,98757.38
2023-09-10T23:21:06.295Z,98760.09
2023-09-10T23:23:33.079Z,98759.03
2023-09-10T23:26:02.432Z,98758.00
2023-09-10T23:28:29.418Z,98765.66
2023-09-10T23:30:56.194Z,98750.06
2023-09-10T23:33:22.971Z,98747.19
2023-09-10T23:35:49.767Z,98759.69
2023-09-10T23:38:16.556Z,98751.53
2023-09-10T23:40:54.780Z,98753.25
2023-09-10T23:43:21.622Z,98747.44
2023-09-10T23:45:48.393Z,98744.28
2023-09-10T23:48:18.660Z,98744.16
2023-09-10T23:50:45.865Z,98743.97
2023-09-10T23:53:13.228Z,98747.91
2023-09-10T23:55:39.991Z,98734.09
2023-09-10T23:58:07.703Z,98742.47
